createdAt,value
2018-02-11T00:00:02.760Z,987.65
2018-02-11T00:01:02.757Z,987.63
2018-02-11T00:02:56.378Z,987.59
2018-02-11T00:03:56.385Z,987.51
2018-02-11T00:05:50.013Z,987.49
2018-02-11T00:06:50.008Z,987.49
2018-02-11T00:08:43.625Z,987.42
2018-02-11T00:09:43.635Z,987.39
2018-02-11T00:11:37.247Z,987.38
2018-02-11T00:12:37.256Z,987.39
2018-02-11T00:14:30.884Z,987.39
2018-02-11T00:15:30.882Z,987.31
2018-02-11T00:17:24.500Z,987.32
2018-02-11T00:18:24.509Z,987.36
2018-02-11T00:20:18.135Z,987.34
2018-02-11T00:21:18.137Z,987.22
2018-02-11T00:23:11.750Z,987.32
2018-02-11T00:24:11.759Z,987.28
2018-02-11T00:26:05.420Z,987.21
2018-02-11T00:27:05.386Z,987.18
2018-02-11T00:28:59.011Z,987.16
2018-02-11T00:29:59.019Z,987.14
2018-02-11T00:31:52.658Z,987.10
2018-02-11T00:32:52.655Z,987.12
2018-02-11T00:34:46.270Z,987.07
2018-02-11T00:35:46.281Z,987.05
2018-02-11T00:37:39.908Z,987.01
2018-02-11T00:38:39.916Z,987.01
2018-02-11T00:40:33.545Z,987.01
2018-02-11T00:41:33.543Z,986.96
2018-02-11T00:43:27.170Z,986.92
2018-02-11T00:44:27.170Z,986.91
2018-02-11T00:46:20.800Z,986.86
2018-02-11T00:47:20.795Z,986.87
2018-02-11T00:49:14.411Z,986.91
2018-02-11T00:50:14.420Z,986.91
2018-02-11T00:52:08.044Z,986.88
2018-02-11T00:53:08.044Z,986.88
2018-02-11T00:55:01.661Z,986.83
2018-02-11T00:56:01.668Z,986.83
2018-02-11T00:57:55.295Z,986.80
2018-02-11T00:58:55.305Z,986.82
2018-02-11T01:00:49.002Z,986.72
2018-02-11T01:01:48.999Z,986.72
2018-02-11T01:03:42.616Z,986.65
2018-02-11T01:04:42.626Z,986.69
2018-02-11T01:06:36.250Z,986.67
2018-02-11T01:07:36.248Z,986.73
2018-02-11T01:09:29.862Z,986.59
2018-02-11T01:10:29.872Z,986.57
2018-02-11T01:12:23.500Z,986.50
2018-02-11T01:13:23.497Z,986.51
2018-02-11T01:15:17.113Z,986.51
2018-02-11T01:16:17.122Z,986.49
2018-02-11T01:18:10.754Z,986.38
2018-02-11T01:19:10.749Z,986.34
2018-02-11T01:21:04.367Z,986.34
2018-02-11T01:22:04.370Z,986.29
2018-02-11T01:23:57.988Z,986.25
2018-02-11T01:24:57.995Z,986.24
2018-02-11T01:26:51.647Z,986.23
2018-02-11T01:27:51.631Z,986.23
2018-02-11T01:29:45.279Z,986.23
2018-02-11T01:30:45.255Z,986.17
2018-02-11T01:32:38.904Z,986.19
2018-02-11T01:33:38.890Z,986.21
2018-02-11T01:35:32.521Z,986.13
2018-02-11T01:36:32.529Z,986.11
2018-02-11T01:38:26.202Z,986.04
2018-02-11T01:39:26.155Z,986.06
2018-02-11T01:41:19.780Z,986.07
2018-02-11T01:42:19.789Z,986.06
2018-02-11T01:44:13.406Z,985.98
2018-02-11T01:45:13.416Z,986.00
2018-02-11T01:47:07.042Z,985.98
2018-02-11T01:48:07.043Z,985.98
2018-02-11T01:50:00.656Z,985.94
2018-02-11T01:51:00.666Z,985.93
2018-02-11T01:52:54.304Z,985.94
2018-02-11T01:53:54.300Z,985.95
2018-02-11T01:55:47.953Z,985.93
2018-02-11T01:56:47.936Z,985.92
2018-02-11T01:58:41.571Z,985.89
2018-02-11T01:59:41.578Z,985.89
2018-02-11T02:01:35.186Z,985.83
2018-02-11T02:02:35.195Z,985.81
2018-02-11T02:04:28.819Z,985.82
2018-02-11T02:05:28.820Z,985.84
2018-02-11T02:07:22.467Z,985.82
2018-02-11T02:08:22.446Z,985.83
2018-02-11T02:10:16.061Z,985.75
2018-02-11T02:11:16.069Z,985.76
2018-02-11T02:13:09.694Z,985.76
2018-02-11T02:14:09.694Z,985.77
2018-02-11T02:16:03.310Z,985.79
2018-02-11T02:17:03.318Z,985.73
2018-02-11T02:18:56.999Z,985.66
2018-02-11T02:19:56.999Z,985.62
2018-02-11T02:21:50.615Z,985.54
2018-02-11T02:22:50.623Z,985.46
2018-02-11T02:24:44.249Z,985.37
2018-02-11T02:25:44.248Z,985.29
2018-02-11T02:27:37.864Z,985.20
2018-02-11T02:28:37.873Z,985.23
2018-02-11T02:30:31.512Z,985.17
2018-02-11T02:31:31.507Z,985.20
2018-02-11T02:33:25.158Z,985.16
2018-02-11T02:34:25.143Z,985.08
2018-02-11T02:36:18.768Z,985.07
2018-02-11T02:37:18.777Z,984.98
2018-02-11T02:39:12.413Z,984.92
2018-02-11T02:40:12.416Z,984.91
2018-02-11T02:42:06.027Z,984.89
2018-02-11T02:43:06.037Z,984.86
2018-02-11T02:44:59.673Z,984.83
2018-02-11T02:45:59.674Z,984.81
2018-02-11T02:47:53.290Z,984.85
2018-02-11T02:48:53.298Z,984.82
2018-02-11T02:50:46.928Z,984.81
2018-02-11T02:51:46.924Z,984.80
2018-02-11T02:53:41.543Z,984.75
2018-02-11T02:54:41.550Z,984.74
2018-02-11T02:56:35.166Z,984.70
2018-02-11T02:57:35.174Z,984.78
2018-02-11T02:59:28.810Z,984.65
2018-02-11T03:00:28.807Z,984.66
2018-02-11T03:02:22.440Z,984.64
2018-02-11T03:03:22.447Z,984.65
2018-02-11T03:05:16.072Z,984.58
2018-02-11T03:06:16.074Z,984.50
2018-02-11T03:08:09.688Z,984.44
2018-02-11T03:09:09.698Z,984.40
2018-02-11T03:11:03.332Z,984.40
2018-02-11T03:12:03.331Z,984.35
2018-02-11T03:13:56.958Z,984.40
2018-02-11T03:14:56.967Z,984.35
2018-02-11T03:16:50.596Z,984.34
2018-02-11T03:17:50.602Z,984.36
2018-02-11T03:19:44.239Z,984.27
2018-02-11T03:20:44.237Z,984.19
2018-02-11T03:22:37.852Z,984.24
2018-02-11T03:23:37.861Z,984.18
2018-02-11T03:25:31.488Z,984.12
2018-02-11T03:26:31.485Z,984.10
2018-02-11T03:28:25.103Z,984.02
2018-02-11T03:29:25.111Z,984.01
2018-02-11T03:31:18.741Z,983.96
2018-02-11T03:32:18.735Z,983.85
2018-02-11T03:34:12.351Z,983.86
2018-02-11T03:35:12.360Z,983.88
2018-02-11T03:37:05.976Z,983.88
2018-02-11T03:38:05.989Z,983.88
2018-02-11T03:39:59.616Z,983.89
2018-02-11T03:40:59.611Z,983.87
2018-02-11T03:42:53.238Z,983.82
2018-02-11T03:43:53.246Z,983.85
2018-02-11T03:45:46.872Z,983.87
2018-02-11T03:46:46.869Z,983.77
2018-02-11T03:50:13.486Z,983.76
2018-02-11T03:51:13.486Z,983.79
2018-02-11T03:53:07.098Z,983.74
2018-02-11T03:54:07.109Z,983.77
2018-02-11T03:56:00.725Z,983.75
2018-02-11T03:57:00.733Z,983.68
2018-02-11T03:58:54.348Z,983.70
2018-02-11T03:59:54.358Z,983.64
2018-02-11T04:01:47.975Z,983.63
2018-02-11T04:02:47.982Z,983.61
2018-02-11T04:04:41.630Z,983.64
2018-02-11T04:05:41.631Z,983.57
2018-02-11T04:07:35.246Z,983.55
2018-02-11T04:08:35.308Z,983.57
2018-02-11T04:10:28.878Z,983.46
2018-02-11T04:11:28.878Z,983.52
2018-02-11T04:13:22.533Z,983.46
2018-02-11T04:14:22.541Z,983.48
2018-02-11T04:16:16.156Z,983.41
2018-02-11T04:17:16.164Z,983.34
2018-02-11T04:19:09.778Z,983.37
2018-02-11T04:20:09.788Z,983.29
2018-02-11T04:22:03.414Z,983.25
2018-02-11T04:23:03.423Z,983.26
2018-02-11T04:24:57.059Z,983.18
2018-02-11T04:25:57.059Z,983.22
2018-02-11T04:27:50.678Z,983.19
2018-02-11T04:28:50.685Z,983.21
2018-02-11T04:30:44.320Z,983.12
2018-02-11T04:31:44.318Z,983.09
2018-02-11T04:33:37.933Z,983.16
2018-02-11T04:34:37.941Z,983.09
2018-02-11T04:36:31.559Z,983.10
2018-02-11T04:37:31.566Z,983.06
2018-02-11T04:39:25.185Z,983.00
2018-02-11T04:40:25.192Z,982.96
2018-02-11T04:42:18.810Z,982.91
2018-02-11T04:43:18.817Z,982.91
2018-02-11T04:45:12.452Z,982.85
2018-02-11T04:46:12.453Z,982.80
2018-02-11T04:48:06.080Z,982.74
2018-02-11T04:49:06.086Z,982.72
2018-02-11T04:50:59.712Z,982.69
2018-02-11T04:51:59.719Z,982.64
2018-02-11T04:53:53.336Z,982.54
2018-02-11T04:54:53.344Z,982.63
2018-02-11T04:56:46.989Z,982.53
2018-02-11T04:57:46.996Z,982.46
2018-02-11T04:59:40.622Z,982.40
2018-02-11T05:00:40.621Z,982.38
2018-02-11T05:02:34.257Z,982.38
2018-02-11T05:03:34.254Z,982.36
2018-02-11T05:05:27.891Z,982.26
2018-02-11T05:06:27.890Z,982.26
2018-02-11T05:08:21.506Z,982.27
2018-02-11T05:09:21.556Z,982.24
2018-02-11T05:11:15.141Z,982.25
2018-02-11T05:12:15.149Z,982.18
2018-02-11T05:14:08.771Z,982.15
2018-02-11T05:15:08.776Z,982.13
2018-02-11T05:17:02.395Z,982.19
2018-02-11T05:18:02.403Z,982.17
2018-02-11T05:19:56.030Z,982.11
2018-02-11T05:20:56.026Z,982.02
2018-02-11T05:22:49.644Z,982.05
2018-02-11T05:23:49.658Z,982.05
2018-02-11T05:25:43.291Z,982.02
2018-02-11T05:26:43.290Z,982.04
2018-02-11T05:28:36.905Z,981.96
2018-02-11T05:29:36.919Z,982.02
2018-02-11T05:31:30.532Z,981.93
2018-02-11T05:32:30.540Z,981.95
2018-02-11T05:34:24.155Z,981.99
2018-02-11T05:35:24.163Z,981.94
2018-02-11T05:37:17.782Z,981.94
2018-02-11T05:38:17.790Z,981.91
2018-02-11T05:40:11.419Z,981.91
2018-02-11T05:41:11.414Z,981.85
2018-02-11T05:43:05.039Z,981.85
2018-02-11T05:44:05.050Z,981.83
2018-02-11T05:45:58.685Z,981.78
2018-02-11T05:46:58.684Z,981.78
2018-02-11T05:48:52.312Z,981.82
2018-02-11T05:49:52.308Z,981.81
2018-02-11T05:51:45.934Z,981.80
2018-02-11T05:52:45.942Z,981.84
2018-02-11T05:54:39.560Z,981.69
2018-02-11T05:55:39.567Z,981.69
2018-02-11T05:57:33.202Z,981.58
2018-02-11T05:58:33.207Z,981.58
2018-02-11T06:00:26.844Z,981.48
2018-02-11T06:01:26.840Z,981.44
2018-02-11T06:03:20.455Z,981.46
2018-02-11T06:04:20.465Z,981.38
2018-02-11T06:06:14.100Z,981.44
2018-02-11T06:07:14.099Z,981.40
2018-02-11T06:09:07.715Z,981.39
2018-02-11T06:10:07.722Z,981.36
2018-02-11T06:12:01.342Z,981.29
2018-02-11T06:13:01.347Z,981.34
2018-02-11T06:14:54.989Z,981.21
2018-02-11T06:15:54.998Z,981.21
2018-02-11T06:17:48.613Z,981.12
2018-02-11T06:18:48.623Z,981.15
2018-02-11T06:20:42.249Z,981.15
2018-02-11T06:21:42.249Z,981.13
2018-02-11T06:23:35.865Z,981.15
2018-02-11T06:24:35.871Z,981.16
2018-02-11T06:26:29.487Z,981.15
2018-02-11T06:27:29.497Z,981.13
2018-02-11T06:29:23.174Z,981.12
2018-02-11T06:30:23.131Z,981.06
2018-02-11T06:32:16.758Z,980.99
2018-02-11T06:33:16.765Z,980.98
2018-02-11T06:35:10.412Z,980.99
2018-02-11T06:36:10.411Z,981.00
2018-02-11T06:38:04.035Z,980.89
2018-02-11T06:39:04.042Z,980.90
2018-02-11T06:40:57.671Z,980.88
2018-02-11T06:41:57.668Z,980.83
2018-02-11T06:43:51.281Z,980.74
2018-02-11T06:44:51.292Z,980.80
2018-02-11T06:46:44.992Z,980.78
2018-02-11T06:47:44.999Z,980.73
2018-02-11T06:49:38.615Z,980.65
2018-02-11T06:50:38.622Z,980.69
2018-02-11T06:52:32.239Z,980.56
2018-02-11T06:53:32.250Z,980.58
2018-02-11T06:55:25.876Z,980.57
2018-02-11T06:56:25.875Z,980.57
2018-02-11T06:58:19.494Z,980.58
2018-02-11T06:59:19.498Z,980.57
2018-02-11T07:01:13.134Z,980.63
2018-02-11T07:02:13.132Z,980.43
2018-02-11T07:04:06.746Z,980.47
2018-02-11T07:05:06.776Z,980.44
2018-02-11T07:07:00.381Z,980.38
2018-02-11T07:08:00.391Z,980.33
2018-02-11T07:09:54.007Z,980.36
2018-02-11T07:10:54.016Z,980.36
2018-02-11T07:12:47.634Z,980.34
2018-02-11T07:13:47.642Z,980.30
2018-02-11T07:15:41.267Z,980.32
2018-02-11T07:16:41.263Z,980.29
2018-02-11T07:18:34.880Z,980.38
2018-02-11T07:19:34.891Z,980.27
2018-02-11T07:21:28.516Z,980.32
2018-02-11T07:22:28.513Z,980.26
2018-02-11T07:24:22.141Z,980.19
2018-02-11T07:25:22.149Z,980.24
2018-02-11T07:27:15.791Z,980.22
2018-02-11T07:28:15.773Z,980.20
2018-02-11T07:30:09.392Z,980.27
2018-02-11T07:31:09.398Z,980.18
2018-02-11T07:33:03.028Z,980.21
2018-02-11T07:34:03.033Z,980.21
2018-02-11T07:35:56.660Z,980.30
2018-02-11T07:36:56.658Z,980.15
2018-02-11T07:38:50.278Z,980.31
2018-02-11T07:39:50.285Z,980.32
2018-02-11T07:41:43.912Z,980.30
2018-02-11T07:42:43.910Z,980.32
2018-02-11T07:44:37.526Z,980.24
2018-02-11T07:45:37.557Z,980.26
2018-02-11T07:47:31.158Z,980.20
2018-02-11T07:48:31.162Z,980.30
2018-02-11T07:50:24.798Z,980.25
2018-02-11T07:51:24.796Z,980.30
2018-02-11T07:53:18.412Z,980.40
2018-02-11T07:54:18.421Z,980.36
2018-02-11T07:56:12.053Z,980.27
2018-02-11T07:57:12.051Z,980.30
2018-02-11T07:59:05.679Z,980.23
2018-02-11T08:00:05.686Z,980.16
2018-02-11T08:01:59.305Z,980.25
2018-02-11T08:02:59.315Z,980.24
2018-02-11T08:04:52.991Z,980.22
2018-02-11T08:05:52.998Z,980.28
2018-02-11T08:07:46.621Z,980.27
2018-02-11T08:08:46.632Z,980.32
2018-02-11T08:10:40.262Z,980.35
2018-02-11T08:11:40.260Z,980.29
2018-02-11T08:13:33.883Z,980.27
2018-02-11T08:14:33.889Z,980.32
2018-02-11T08:16:27.533Z,980.30
2018-02-11T08:17:27.532Z,980.28
2018-02-11T08:19:21.146Z,980.17
2018-02-11T08:20:21.153Z,980.27
2018-02-11T08:22:14.767Z,980.19
2018-02-11T08:23:14.776Z,980.21
2018-02-11T08:25:08.390Z,980.13
2018-02-11T08:26:08.398Z,980.25
2018-02-11T08:28:02.013Z,980.21
2018-02-11T08:29:02.023Z,980.17
2018-02-11T08:30:55.645Z,980.23
2018-02-11T08:31:55.644Z,980.14
2018-02-11T08:33:49.266Z,980.10
2018-02-11T08:34:49.276Z,980.07
2018-02-11T08:36:42.902Z,979.95
2018-02-11T08:37:42.899Z,980.03
2018-02-11T08:39:36.042Z,979.94
2018-02-11T08:40:36.050Z,979.97
2018-02-11T08:42:29.685Z,979.93
2018-02-11T08:43:29.692Z,979.97
2018-02-11T08:45:23.316Z,979.90
2018-02-11T08:46:23.325Z,979.86
2018-02-11T08:48:16.940Z,979.83
2018-02-11T08:49:16.949Z,979.88
2018-02-11T08:51:10.572Z,979.86
2018-02-11T08:52:10.571Z,979.92
2018-02-11T08:54:04.184Z,979.85
2018-02-11T08:55:04.203Z,979.88
2018-02-11T08:56:57.821Z,979.77
2018-02-11T08:57:57.817Z,979.81
2018-02-11T08:59:51.440Z,979.75
2018-02-11T09:00:51.466Z,979.69
2018-02-11T09:02:45.066Z,979.70
2018-02-11T09:03:45.075Z,979.72
2018-02-11T09:05:38.713Z,979.68
2018-02-11T09:06:38.719Z,979.61
2018-02-11T09:08:32.316Z,979.58
2018-02-11T09:09:32.326Z,979.58
2018-02-11T09:11:25.952Z,979.68
2018-02-11T09:12:25.954Z,979.63
2018-02-11T09:14:19.568Z,979.61
2018-02-11T09:15:19.575Z,979.61
2018-02-11T09:17:13.204Z,979.55
2018-02-11T09:18:13.203Z,979.58
2018-02-11T09:20:06.819Z,979.56
2018-02-11T09:21:06.828Z,979.51
2018-02-11T09:23:00.445Z,979.51
2018-02-11T09:24:00.456Z,979.44
2018-02-11T09:25:54.088Z,979.39
2018-02-11T09:26:54.090Z,979.43
2018-02-11T09:28:47.708Z,979.41
2018-02-11T09:29:47.713Z,979.32
2018-02-11T09:31:41.342Z,979.30
2018-02-11T09:32:41.369Z,979.36
2018-02-11T09:34:34.990Z,979.24
2018-02-11T09:35:34.996Z,979.33
2018-02-11T09:37:28.615Z,979.28
2018-02-11T09:38:28.624Z,979.32
2018-02-11T09:40:22.239Z,979.25
2018-02-11T09:41:22.252Z,979.31
2018-02-11T09:43:15.864Z,979.32
2018-02-11T09:44:15.872Z,979.35
2018-02-11T09:46:09.508Z,979.38
2018-02-11T09:47:09.508Z,979.33
2018-02-11T09:49:03.137Z,979.34
2018-02-11T09:50:03.169Z,979.38
2018-02-11T09:51:56.785Z,979.38
2018-02-11T09:52:56.782Z,979.39
2018-02-11T09:54:50.399Z,979.41
2018-02-11T09:55:50.409Z,979.43
2018-02-11T09:57:44.035Z,979.44
2018-02-11T09:58:44.044Z,979.46
2018-02-11T10:00:37.669Z,979.44
2018-02-11T10:01:37.684Z,979.46
2018-02-11T10:03:31.294Z,979.39
2018-02-11T10:04:31.302Z,979.42
2018-02-11T10:06:24.999Z,979.43
2018-02-11T10:07:24.997Z,979.42
2018-02-11T10:09:18.646Z,979.48
2018-02-11T10:10:18.651Z,979.46
2018-02-11T10:12:12.279Z,979.38
2018-02-11T10:13:12.277Z,979.45
2018-02-11T10:15:05.893Z,979.31
2018-02-11T10:16:05.903Z,979.36
2018-02-11T10:17:59.527Z,979.30
2018-02-11T10:18:59.534Z,979.25
2018-02-11T10:20:53.161Z,979.25
2018-02-11T10:21:53.172Z,979.24
2018-02-11T10:23:46.790Z,979.21
2018-02-11T10:24:46.796Z,979.18
2018-02-11T10:26:40.431Z,979.21
2018-02-11T10:27:40.428Z,979.24
2018-02-11T10:29:34.078Z,979.21
2018-02-11T10:30:34.075Z,979.20
2018-02-11T10:32:27.711Z,979.29
2018-02-11T10:33:27.710Z,979.21
2018-02-11T10:35:21.340Z,979.21
2018-02-11T10:36:21.332Z,979.13
2018-02-11T10:38:14.991Z,979.13
2018-02-11T10:39:15.000Z,979.22
2018-02-11T10:41:08.625Z,979.15
2018-02-11T10:42:08.623Z,979.10
2018-02-11T10:44:02.240Z,979.08
2018-02-11T10:45:02.251Z,979.05
2018-02-11T10:46:55.874Z,979.02
2018-02-11T10:47:55.870Z,978.96
2018-02-11T10:49:49.495Z,978.97
2018-02-11T10:50:49.503Z,979.04
2018-02-11T10:52:43.127Z,979.05
2018-02-11T10:53:43.126Z,979.01
2018-02-11T10:55:36.750Z,979.02
2018-02-11T10:56:36.758Z,978.98
2018-02-11T10:58:30.381Z,979.05
2018-02-11T10:59:30.393Z,978.97
2018-02-11T11:01:24.062Z,979.11
2018-02-11T11:02:24.015Z,979.01
2018-02-11T11:04:17.640Z,979.10
2018-02-11T11:05:17.648Z,979.05
2018-02-11T11:07:11.273Z,979.08
2018-02-11T11:08:11.272Z,979.04
2018-02-11T11:10:04.887Z,979.10
2018-02-11T11:11:04.895Z,979.17
2018-02-11T11:12:58.519Z,979.06
2018-02-11T11:13:58.527Z,979.01
2018-02-11T11:15:52.141Z,979.12
2018-02-11T11:16:52.151Z,979.10
2018-02-11T11:18:45.765Z,979.02
2018-02-11T11:19:45.775Z,979.03
2018-02-11T11:21:39.405Z,979.02
2018-02-11T11:22:39.404Z,979.04
2018-02-11T11:24:33.021Z,979.00
2018-02-11T11:25:33.030Z,979.03
2018-02-11T11:27:26.653Z,978.95
2018-02-11T11:28:26.652Z,979.02
2018-02-11T11:30:20.264Z,979.07
2018-02-11T11:31:20.274Z,979.07
2018-02-11T11:33:13.889Z,979.10
2018-02-11T11:34:13.896Z,979.05
2018-02-11T11:36:07.521Z,979.02
2018-02-11T11:37:07.528Z,979.06
2018-02-11T11:39:01.144Z,979.02
2018-02-11T11:40:01.151Z,979.06
2018-02-11T11:41:54.774Z,979.11
2018-02-11T11:42:54.772Z,979.06
2018-02-11T11:44:48.397Z,978.98
2018-02-11T11:45:48.404Z,979.01
2018-02-11T11:47:42.031Z,979.00
2018-02-11T11:48:42.028Z,979.08
2018-02-11T11:50:35.655Z,979.05
2018-02-11T11:51:35.664Z,979.04
2018-02-11T11:53:29.275Z,979.01
2018-02-11T11:54:29.282Z,979.05
2018-02-11T11:56:22.907Z,979.05
2018-02-11T11:57:22.905Z,979.09
2018-02-11T11:59:16.520Z,978.99
2018-02-11T12:00:16.530Z,978.94
2018-02-11T12:02:10.165Z,978.97
2018-02-11T12:03:10.160Z,979.04
2018-02-11T12:05:03.776Z,978.99
2018-02-11T12:06:03.785Z,979.00
2018-02-11T12:07:57.427Z,979.02
2018-02-11T12:08:57.409Z,979.05
2018-02-11T12:10:51.043Z,978.97
2018-02-11T12:11:51.052Z,978.96
2018-02-11T12:13:44.663Z,978.94
2018-02-11T12:14:44.674Z,978.97
2018-02-11T12:16:38.308Z,978.90
2018-02-11T12:17:38.306Z,978.98
2018-02-11T12:19:31.918Z,978.85
2018-02-11T12:20:31.927Z,978.86
2018-02-11T12:22:25.562Z,978.85
2018-02-11T12:23:25.560Z,978.84
2018-02-11T12:25:19.176Z,978.83
2018-02-11T12:26:19.182Z,978.75
2018-02-11T12:28:12.817Z,978.77
2018-02-11T12:29:12.815Z,978.78
2018-02-11T12:31:06.429Z,978.71
2018-02-11T12:32:06.441Z,978.72
2018-02-11T12:34:00.052Z,978.76
2018-02-11T12:35:00.063Z,978.69
2018-02-11T12:36:53.674Z,978.67
2018-02-11T12:37:53.684Z,978.68
2018-02-11T12:39:47.307Z,978.68
2018-02-11T12:40:47.315Z,978.63
2018-02-11T12:42:40.981Z,978.65
2018-02-11T12:43:40.952Z,978.63
2018-02-11T12:45:34.567Z,978.55
2018-02-11T12:46:34.577Z,978.57
2018-02-11T12:48:28.205Z,978.59
2018-02-11T12:49:28.198Z,978.57
2018-02-11T12:51:21.810Z,978.65
2018-02-11T12:52:21.823Z,978.65
2018-02-11T12:54:15.456Z,978.66
2018-02-11T12:55:15.456Z,978.66
2018-02-11T12:57:09.072Z,978.63
2018-02-11T12:58:09.084Z,978.62
2018-02-11T13:00:02.708Z,978.62
2018-02-11T13:01:02.709Z,978.55
2018-02-11T13:02:56.320Z,978.59
2018-02-11T13:03:56.329Z,978.65
2018-02-11T13:05:49.942Z,978.56
2018-02-11T13:06:49.951Z,978.63
2018-02-11T13:08:43.586Z,978.56
2018-02-11T13:09:43.583Z,978.48
2018-02-11T13:11:37.198Z,978.59
2018-02-11T13:12:37.206Z,978.54
2018-02-11T13:14:30.842Z,978.54
2018-02-11T13:15:30.840Z,978.57
2018-02-11T13:17:24.466Z,978.51
2018-02-11T13:18:24.474Z,978.53
2018-02-11T13:20:18.110Z,978.51
2018-02-11T13:21:18.108Z,978.50
2018-02-11T13:23:11.737Z,978.56
2018-02-11T13:24:11.749Z,978.52
2018-02-11T13:26:05.370Z,978.48
2018-02-11T13:27:05.366Z,978.50
2018-02-11T13:28:58.996Z,978.48
2018-02-11T13:29:58.999Z,978.48
2018-02-11T13:31:52.633Z,978.48
2018-02-11T13:32:52.649Z,978.49
2018-02-11T13:34:46.278Z,978.41
2018-02-11T13:35:46.306Z,978.43
2018-02-11T13:37:39.869Z,978.37
2018-02-11T13:38:39.879Z,978.40
2018-02-11T13:40:33.515Z,978.40
2018-02-11T13:41:33.511Z,978.32
2018-02-11T13:43:27.136Z,978.38
2018-02-11T13:44:27.145Z,978.38
2018-02-11T13:46:20.779Z,978.39
2018-02-11T13:47:20.783Z,978.35
2018-02-11T13:49:14.392Z,978.29
2018-02-11T13:50:14.401Z,978.31
2018-02-11T13:52:08.024Z,978.30
2018-02-11T13:53:08.090Z,978.36
2018-02-11T13:55:01.648Z,978.36
2018-02-11T13:56:01.663Z,978.38
2018-02-11T13:57:55.272Z,978.33
2018-02-11T13:58:55.282Z,978.31
2018-02-11T14:00:48.922Z,978.34
2018-02-11T14:01:48.905Z,978.37
2018-02-11T14:03:42.521Z,978.30
2018-02-11T14:04:42.529Z,978.36
2018-02-11T14:06:36.162Z,978.32
2018-02-11T14:07:36.162Z,978.34
2018-02-11T14:09:29.786Z,978.35
2018-02-11T14:10:29.794Z,978.40
2018-02-11T14:12:23.471Z,978.42
2018-02-11T14:13:23.468Z,978.43
2018-02-11T14:15:17.084Z,978.48
2018-02-11T14:16:17.092Z,978.49
2018-02-11T14:18:10.715Z,978.39
2018-02-11T14:19:10.725Z,978.40
2018-02-11T14:21:04.354Z,978.31
2018-02-11T14:22:04.357Z,978.29
2018-02-11T14:23:57.978Z,978.26
2018-02-11T14:24:58.023Z,978.29
2018-02-11T14:26:51.613Z,978.28
2018-02-11T14:27:51.610Z,978.32
2018-02-11T14:29:45.222Z,978.37
2018-02-11T14:30:45.228Z,978.34
2018-02-11T14:32:38.871Z,978.36
2018-02-11T14:33:38.850Z,978.34
2018-02-11T14:35:32.474Z,978.35
2018-02-11T14:36:32.481Z,978.34
2018-02-11T14:38:26.095Z,978.33
2018-02-11T14:39:26.101Z,978.34
2018-02-11T14:41:19.716Z,978.39
2018-02-11T14:42:19.723Z,978.40
2018-02-11T14:44:13.346Z,978.40
2018-02-11T14:45:13.354Z,978.40
2018-02-11T14:47:06.980Z,978.40
2018-02-11T14:48:06.977Z,978.32
2018-02-11T14:50:00.602Z,978.36
2018-02-11T14:51:00.610Z,978.30
2018-02-11T14:52:54.244Z,978.34
2018-02-11T14:53:54.243Z,978.36
2018-02-11T14:55:47.868Z,978.39
2018-02-11T14:56:47.878Z,978.30
2018-02-11T14:58:41.510Z,978.37
2018-02-11T14:59:41.508Z,978.40
2018-02-11T15:01:35.121Z,978.34
2018-02-11T15:02:35.129Z,978.43
2018-02-11T15:04:28.744Z,978.47
2018-02-11T15:05:28.749Z,978.43
2018-02-11T15:07:22.374Z,978.39
2018-02-11T15:08:22.372Z,978.47
2018-02-11T15:10:15.996Z,978.39
2018-02-11T15:11:16.006Z,978.41
2018-02-11T15:13:09.635Z,978.42
2018-02-11T15:14:09.629Z,978.41
2018-02-11T15:16:03.244Z,978.43
2018-02-11T15:17:03.252Z,978.46
2018-02-11T15:18:56.896Z,978.45
2018-02-11T15:19:56.896Z,978.47
2018-02-11T15:21:50.529Z,978.48
2018-02-11T15:22:50.538Z,978.46
2018-02-11T15:24:44.179Z,978.41
2018-02-11T15:25:44.171Z,978.41
2018-02-11T15:27:37.802Z,978.41
2018-02-11T15:28:37.797Z,978.45
2018-02-11T15:30:31.410Z,978.45
2018-02-11T15:31:31.418Z,978.33
2018-02-11T15:33:25.172Z,978.34
2018-02-11T15:34:25.058Z,978.35
2018-02-11T15:36:18.682Z,978.26
2018-02-11T15:37:18.689Z,978.25
2018-02-11T15:39:12.323Z,978.28
2018-02-11T15:40:12.340Z,978.27
2018-02-11T15:42:05.941Z,978.29
2018-02-11T15:43:05.952Z,978.33
2018-02-11T15:44:59.575Z,978.28
2018-02-11T15:45:59.582Z,978.28
2018-02-11T15:47:53.209Z,978.32
2018-02-11T15:48:53.206Z,978.38
2018-02-11T15:50:46.822Z,978.39
2018-02-11T15:51:46.830Z,978.40
2018-02-11T15:53:40.454Z,978.40
2018-02-11T15:54:40.454Z,978.45
2018-02-11T15:56:34.077Z,978.44
2018-02-11T15:57:34.084Z,978.44
2018-02-11T15:59:27.733Z,978.51
2018-02-11T16:00:27.717Z,978.56
2018-02-11T16:02:21.406Z,978.54
2018-02-11T16:03:21.352Z,978.56
2018-02-11T16:05:14.988Z,978.63
2018-02-11T16:06:14.996Z,978.60
2018-02-11T16:08:08.653Z,978.67
2018-02-11T16:09:08.627Z,978.68
2018-02-11T16:11:02.242Z,978.70
2018-02-11T16:12:02.251Z,978.70
2018-02-11T16:13:55.875Z,978.63
2018-02-11T16:14:55.879Z,978.64
2018-02-11T16:16:49.489Z,978.66
2018-02-11T16:17:49.497Z,978.60
2018-02-11T16:19:43.132Z,978.66
2018-02-11T16:20:43.131Z,978.62
2018-02-11T16:22:36.746Z,978.66
2018-02-11T16:23:36.758Z,978.62
2018-02-11T16:25:30.379Z,978.64
2018-02-11T16:26:30.388Z,978.65
2018-02-11T16:28:24.013Z,978.69
2018-02-11T16:29:24.059Z,978.69
2018-02-11T16:31:17.626Z,978.73
2018-02-11T16:32:17.637Z,978.77
2018-02-11T16:34:11.272Z,978.77
2018-02-11T16:35:11.270Z,978.78
2018-02-11T16:37:04.891Z,978.77
2018-02-11T16:38:04.896Z,978.88
2018-02-11T16:39:58.519Z,978.85
2018-02-11T16:40:58.517Z,978.84
2018-02-11T16:42:52.142Z,978.90
2018-02-11T16:43:52.182Z,978.94
2018-02-11T16:45:45.768Z,978.93
2018-02-11T16:46:45.773Z,978.92
2018-02-11T16:48:39.449Z,978.90
2018-02-11T16:49:39.397Z,978.92
2018-02-11T16:51:33.011Z,978.94
2018-02-11T16:52:33.018Z,978.85
2018-02-11T16:54:26.630Z,978.96
2018-02-11T16:55:26.640Z,978.98
2018-02-11T16:57:20.256Z,978.94
2018-02-11T16:58:20.262Z,978.97
2018-02-11T17:00:13.888Z,979.07
2018-02-11T17:01:13.895Z,979.03
2018-02-11T17:03:07.519Z,979.06
2018-02-11T17:04:07.519Z,979.05
2018-02-11T17:06:01.144Z,979.11
2018-02-11T17:07:01.153Z,979.09
2018-02-11T17:08:54.778Z,979.17
2018-02-11T17:09:54.785Z,979.15
2018-02-11T17:11:48.401Z,979.14
2018-02-11T17:12:48.409Z,979.16
2018-02-11T17:14:42.024Z,979.17
2018-02-11T17:15:42.033Z,979.16
2018-02-11T17:17:35.694Z,979.19
2018-02-11T17:18:35.657Z,979.23
2018-02-11T17:20:29.275Z,979.37
2018-02-11T17:21:29.283Z,979.39
2018-02-11T17:23:22.895Z,979.41
2018-02-11T17:24:22.904Z,979.48
2018-02-11T17:26:16.529Z,979.52
2018-02-11T17:27:16.535Z,979.53
2018-02-11T17:29:10.163Z,979.50
2018-02-11T17:30:10.171Z,979.49
2018-02-11T17:32:03.796Z,979.48
2018-02-11T17:33:03.804Z,979.52
2018-02-11T17:34:57.420Z,979.47
2018-02-11T17:35:57.427Z,979.45
2018-02-11T17:37:51.043Z,979.56
2018-02-11T17:38:51.052Z,979.58
2018-02-11T17:40:44.680Z,979.62
2018-02-11T17:41:44.683Z,979.63
2018-02-11T17:43:38.310Z,979.67
2018-02-11T17:44:38.318Z,979.69
2018-02-11T17:46:31.934Z,979.69
2018-02-11T17:47:31.944Z,979.70
2018-02-11T17:49:25.578Z,979.72
2018-02-11T17:50:25.587Z,979.65
2018-02-11T17:52:19.202Z,979.74
2018-02-11T17:53:19.210Z,979.70
2018-02-11T17:55:12.888Z,979.72
2018-02-11T17:56:12.862Z,979.76
2018-02-11T17:58:06.478Z,979.67
2018-02-11T17:59:06.485Z,979.71
2018-02-11T18:01:00.107Z,979.64
2018-02-11T18:02:00.111Z,979.72
2018-02-11T18:03:53.731Z,979.72